Time;durP1;ratioP1;P1;durP2;ratioP2;P2;SDS_P1;SDS_P2;PMS_P1;PMS_P2;Temp;Humidity;BMP_temperature;BMP_pressure;BME280_temperature;BME280_humidity;BME280_pressure;Samples;Min_cycle;Max_cycle;Signal;HPM_P1;HPM_P2
2023/10/27 00:00:15;;;;;;;67.57;33.22;;;;;;;;;;5110939;28;20405;-81
2023/10/27 00:02:42;;;;;;;67.13;33.97;;;;;;;;;;5115188;28;20421;-81
2023/10/27 00:05:07;;;;;;;64.90;33.42;;;9.90;99.90;;;;;;5113091;28;20802;-81
2023/10/27 00:07:33;;;;;;;66.80;33.83;;;;;;;;;;5085546;28;20474;-81
2023/10/27 00:09:59;;;;;;;67.68;33.20;;;;;;;;;;5097939;28;20462;-81
2023/10/27 00:12:26;;;;;;;67.70;32.58;;;;;;;;;;5123695;27;20398;-81
2023/10/27 00:14:52;;;;;;;65.00;32.72;;;;;;;;;;5123127;27;20410;-81
2023/10/27 00:17:18;;;;;;;64.00;32.20;;;9.70;99.90;;;;;;5113713;28;20439;-81
2023/10/27 00:19:44;;;;;;;67.47;32.83;;;;;;;;;;5109301;27;20498;-81
2023/10/27 00:22:10;;;;;;;61.92;31.17;;;;;;;;;;5080251;28;20444;-81
2023/10/27 00:24:36;;;;;;;59.97;30.25;;;;;;;;;;5097060;27;20407;-74
2023/10/27 00:27:02;;;;;;;59.03;29.75;;;;;;;;;;5113364;27;20775;-74
2023/10/27 00:29:28;;;;;;;57.67;29.23;;;9.50;99.90;;;;;;5113783;28;20400;-74
2023/10/27 00:31:54;;;;;;;54.50;29.57;;;;;;;;;;5104047;27;20400;-74
2023/10/27 00:34:20;;;;;;;53.10;28.02;;;;;;;;;;5119612;27;20898;-74
2023/10/27 00:36:47;;;;;;;53.97;26.85;;;9.60;99.90;;;;;;5112400;27;20422;-74
2023/10/27 00:39:13;;;;;;;50.27;26.47;;;;;;;;;;5113652;28;20454;-74
2023/10/27 00:41:39;;;;;;;52.72;26.67;;;;;;;;;;5095616;27;20471;-80
2023/10/27 00:44:05;;;;;;;48.90;26.00;;;;;;;;;;5113132;27;20449;-80
2023/10/27 00:46:32;;;;;;;46.87;25.33;;;;;;;;;;5089122;28;20502;-80
2023/10/27 00:48:58;;;;;;;46.78;24.55;;;;;;;;;;5112469;27;20422;-80
2023/10/27 00:51:24;;;;;;;43.78;23.63;;;;;;;;;;5118847;27;20400;-80
2023/10/27 00:53:51;;;;;;;43.20;22.87;;;9.60;99.90;;;;;;5107382;28;20481;-80
2023/10/27 00:56:17;;;;;;;42.90;23.58;;;;;;;;;;5104422;27;20486;-80
2023/10/27 00:58:43;;;;;;;42.63;22.90;;;;;;;;;;5101011;28;20842;-80
2023/10/27 01:01:12;;;;;;;37.50;20.87;;;9.50;99.90;;;;;;5101031;28;20398;-81
2023/10/27 01:03:38;;;;;;;37.37;21.07;;;9.60;99.90;;;;;;5122067;27;20890;-80
2023/10/27 01:06:04;;;;;;;36.93;20.83;;;;;;;;;;5098766;27;20429;-80
2023/10/27 01:08:30;;;;;;;37.92;20.83;;;;;;;;;;5098160;27;20398;-81
2023/10/27 01:10:56;;;;;;;36.70;19.45;;;;;;;;;;5131735;27;20493;-81
2023/10/27 01:13:22;;;;;;;35.93;19.90;;;;;;;;;;5100468;28;20400;-80
2023/10/27 01:15:48;;;;;;;37.70;20.08;;;;;;;;;;5119421;27;20477;-80
2023/10/27 01:18:14;;;;;;;36.95;20.02;;;;;;;;;;5119898;27;20409;-81
2023/10/27 01:20:40;;;;;;;35.75;19.42;;;9.60;99.90;;;;;;5105303;27;20945;-80
2023/10/27 01:23:06;;;;;;;35.93;19.23;;;;;;;;;;5136724;27;20410;-80
2023/10/27 01:25:32;;;;;;;35.90;19.23;;;;;;;;;;5102854;27;20454;-80
2023/10/27 01:27:58;;;;;;;37.55;20.95;;;;;;;;;;5108977;27;20930;-80
2023/10/27 01:30:25;;;;;;;40.45;20.95;;;;;;;;;;5103137;28;20896;-81
2023/10/27 01:32:51;;;;;;;37.63;20.43;;;;;;;;;;5110351;27;20410;-80
2023/10/27 01:35:17;;;;;;;42.28;21.70;;;;;;;;;;5115959;27;20413;-81
2023/10/27 01:37:43;;;;;;;41.22;21.25;;;;;;;;;;5098391;27;20428;-80
2023/10/27 01:40:09;;;;;;;43.37;20.70;;;;;;;;;;5105002;27;20433;-80
2023/10/27 01:42:36;;;;;;;42.20;21.27;;;;;;;;;;5102170;27;20451;-81
2023/10/27 01:45:04;;;;;;;45.90;20.65;;;9.50;99.90;;;;;;5098471;27;20404;-81
2023/10/27 01:47:30;;;;;;;44.03;21.83;;;;;;;;;;5083119;27;20464;-80
2023/10/27 01:49:56;;;;;;;45.40;22.67;;;;;;;;;;5115065;27;20446;-81
2023/10/27 01:52:22;;;;;;;46.30;22.52;;;;;;;;;;5115138;27;20390;-81
2023/10/27 01:54:49;;;;;;;46.45;22.10;;;;;;;;;;5117354;27;20519;-80
2023/10/27 01:57:15;;;;;;;47.03;21.88;;;;;;;;;;5086003;28;20756;-80
2023/10/27 01:59:40;;;;;;;50.63;23.23;;;9.50;99.90;;;;;;5104368;28;20392;-80
2023/10/27 02:02:06;;;;;;;46.70;22.92;;;;;;;;;;5120165;27;20896;-81
2023/10/27 02:04:35;;;;;;;48.40;21.48;;;;;;;;;;5112783;27;20395;-80
2023/10/27 02:07:02;;;;;;;44.20;22.30;;;;;;;;;;5086446;28;20480;-81
2023/10/27 02:09:28;;;;;;;47.22;22.10;;;;;;;;;;5082457;27;20410;-81
2023/10/27 02:11:54;;;;;;;46.73;21.73;;;;;;;;;;5129226;27;20486;-81
2023/10/27 02:14:20;;;;;;;48.17;22.35;;;;;;;;;;5135691;27;20442;-81
2023/10/27 02:16:46;;;;;;;46.88;22.25;;;;;;;;;;5096725;28;20483;-80
2023/10/27 02:19:13;;;;;;;43.63;20.48;;;;;;;;;;5100896;27;20485;-81
2023/10/27 02:21:39;;;;;;;46.05;21.52;;;9.50;99.90;;;;;;5094947;27;20959;-81
2023/10/27 02:24:05;;;;;;;44.10;21.27;;;;;;;;;;5109766;28;21946;-80
2023/10/27 02:26:31;;;;;;;43.20;21.90;;;;;;;;;;5092839;28;20716;-81
2023/10/27 02:28:57;;;;;;;45.17;21.67;;;;;;;;;;5092734;28;20490;-81
2023/10/27 02:31:23;;;;;;;43.70;20.47;;;;;;;;;;5111013;28;20422;-81
2023/10/27 02:33:50;;;;;;;43.03;21.20;;;;;;;;;;5110417;28;20443;-81
2023/10/27 02:36:16;;;;;;;44.27;21.77;;;9.50;99.90;;;;;;5103216;28;20455;-82
2023/10/27 02:38:41;;;;;;;45.97;23.20;;;9.30;99.90;;;;;;5103209;28;20424;-81
2023/10/27 02:41:08;;;;;;;44.70;21.87;;;;;;;;;;5077183;28;20404;-81
2023/10/27 02:43:34;;;;;;;44.60;21.25;;;;;;;;;;5087508;28;20419;-81
2023/10/27 02:46:01;;;;;;;48.03;23.42;;;9.30;99.90;;;;;;5076473;28;20408;-81
2023/10/27 02:48:27;;;;;;;46.38;21.40;;;;;;;;;;5110614;28;20407;-81
2023/10/27 02:50:53;;;;;;;46.63;22.33;;;9.50;99.90;;;;;;5104486;27;20928;-81
2023/10/27 02:53:19;;;;;;;43.67;21.03;;;9.60;99.90;;;;;;5099227;28;20818;-81
2023/10/27 02:55:45;;;;;;;46.07;21.17;;;;;;;;;;5076571;28;20434;-81
2023/10/27 02:58:11;;;;;;;45.17;21.77;;;9.50;99.90;;;;;;5114950;27;20425;-81
2023/10/27 03:00:44;;;;;;;42.13;20.80;;;;;;;;;;5126600;27;20397;-81
2023/10/27 03:03:10;;;;;;;41.03;20.58;;;;;;;;;;5096280;28;20405;-81
2023/10/27 03:05:36;;;;;;;42.03;20.17;;;9.60;99.90;;;;;;5117229;27;20404;-81
2023/10/27 03:08:03;;;;;;;40.23;19.30;;;9.50;99.90;;;;;;5096089;28;20406;-81
2023/10/27 03:10:29;;;;;;;39.60;20.17;;;;;;;;;;5107558;28;20416;-81
2023/10/27 03:12:55;;;;;;;42.38;19.52;;;;;;;;;;5106931;27;20917;-81
2023/10/27 03:15:21;;;;;;;42.08;19.70;;;;;;;;;;5122406;27;20478;-81
2023/10/27 03:17:48;;;;;;;38.63;20.03;;;;;;;;;;5091354;28;20408;-81
2023/10/27 03:20:15;;;;;;;40.97;19.08;;;;;;;;;;5118598;28;20729;-81
2023/10/27 03:22:41;;;;;;;39.20;18.13;;;;;;;;;;5110243;28;20969;-81
2023/10/27 03:25:07;;;;;;;38.35;19.50;;;;;;;;;;5103516;28;20421;-81
2023/10/27 03:27:33;;;;;;;40.33;20.35;;;9.50;99.90;;;;;;5094001;28;20740;-81
2023/10/27 03:29:59;;;;;;;41.30;19.80;;;;;;;;;;5094428;28;20396;-81
2023/10/27 03:32:25;;;;;;;40.60;20.50;;;9.50;99.90;;;;;;5125586;28;20403;-81
2023/10/27 03:34:51;;;;;;;40.37;19.23;;;;;;;;;;5093151;28;20396;-81
2023/10/27 03:37:17;;;;;;;38.33;19.20;;;;;;;;;;5073067;28;20916;-82
2023/10/27 03:39:43;;;;;;;38.42;19.50;;;;;;;;;;5078854;28;20897;-81
2023/10/27 03:42:09;;;;;;;37.47;18.95;;;;;;;;;;5099253;28;20503;-81
2023/10/27 03:44:35;;;;;;;36.97;19.00;;;9.60;99.90;;;;;;5100770;28;20396;-81
2023/10/27 03:47:02;;;;;;;38.33;19.85;;;;;;;;;;5116562;27;20763;-81
2023/10/27 03:49:28;;;;;;;37.25;19.42;;;;;;;;;;5106681;27;20402;-81
2023/10/27 03:51:54;;;;;;;38.22;19.05;;;;;;;;;;5117401;27;20396;-82
2023/10/27 03:54:20;;;;;;;37.65;19.05;;;;;;;;;;5083728;27;20402;-81
2023/10/27 03:56:46;;;;;;;33.50;17.13;;;;;;;;;;5106780;27;20418;-81
2023/10/27 03:59:12;;;;;;;32.78;17.33;;;;;;;;;;5111508;27;20905;-81
2023/10/27 04:01:40;;;;;;;37.27;17.17;;;;;;;;;;5111145;27;20787;-82
2023/10/27 04:04:06;;;;;;;35.15;17.35;;;;;;;;;;5086713;28;21188;-82
2023/10/27 04:06:32;;;;;;;33.80;16.60;;;;;;;;;;5097134;28;20412;-82
2023/10/27 04:08:58;;;;;;;33.30;17.30;;;;;;;;;;5096469;28;20491;-82
2023/10/27 04:11:24;;;;;;;33.92;17.45;;;;;;;;;;5080168;28;20404;-81
2023/10/27 04:13:50;;;;;;;33.58;16.65;;;;;;;;;;5113599;28;20495;-81
2023/10/27 04:16:16;;;;;;;36.33;17.25;;;9.60;99.90;;;;;;5126858;27;20449;-81
2023/10/27 04:18:42;;;;;;;32.22;16.60;;;;;;;;;;5054018;28;20398;-82
2023/10/27 04:21:08;;;;;;;38.08;17.95;;;;;;;;;;5133062;27;20459;-81
2023/10/27 04:23:34;;;;;;;34.58;17.30;;;;;;;;;;5089405;28;20404;-81
2023/10/27 04:26:00;;;;;;;34.72;17.08;;;9.50;99.90;;;;;;5098130;27;20420;-82
2023/10/27 04:28:26;;;;;;;32.03;16.00;;;;;;;;;;5107487;27;20883;-82
2023/10/27 04:30:53;;;;;;;34.83;16.10;;;;;;;;;;5096488;28;20487;-82
2023/10/27 04:33:20;;;;;;;32.53;16.03;;;9.50;99.90;;;;;;5096173;28;20929;-81
2023/10/27 04:35:46;;;;;;;31.25;15.90;;;;;;;;;;5115964;27;20419;-81
2023/10/27 04:38:12;;;;;;;30.33;15.85;;;9.50;99.90;;;;;;5085363;28;20920;-81
2023/10/27 04:40:37;;;;;;;35.10;16.10;;;9.60;99.90;;;;;;5109823;27;20507;-81
2023/10/27 04:43:04;;;;;;;31.95;15.95;;;;;;;;;;5076149;28;20883;-82
2023/10/27 04:45:30;;;;;;;32.13;16.15;;;;;;;;;;5081184;28;20484;-82
2023/10/27 04:47:56;;;;;;;30.20;14.98;;;;;;;;;;5113477;27;20411;-81
2023/10/27 04:50:24;;;;;;;32.43;15.13;;;;;;;;;;5104849;27;20895;-81
2023/10/27 04:52:50;;;;;;;34.58;15.48;;;9.70;99.90;;;;;;5097303;27;20920;-80
2023/10/27 04:55:16;;;;;;;28.50;14.23;;;;;;;;;;5101025;28;20420;-81
2023/10/27 04:57:42;;;;;;;30.20;15.10;;;;;;;;;;5100016;27;20391;-81
2023/10/27 05:00:09;;;;;;;26.40;13.73;;;;;;;;;;5104600;27;20405;-81
2023/10/27 05:02:35;;;;;;;29.85;15.18;;;;;;;;;;5109886;28;20397;-81
2023/10/27 05:05:00;;;;;;;28.50;14.27;;;9.60;99.90;;;;;;5109644;27;20423;-81
2023/10/27 05:07:27;;;;;;;30.93;14.50;;;;;;;;;;5114694;27;20396;-81
2023/10/27 05:09:53;;;;;;;33.05;15.02;;;;;;;;;;5110264;28;20405;-82
2023/10/27 05:12:19;;;;;;;34.72;13.93;;;9.50;99.90;;;;;;5111211;27;20752;-81
2023/10/27 05:14:45;;;;;;;33.60;14.65;;;;;;;;;;5091435;28;20394;-81
2023/10/27 05:17:13;;;;;;;33.67;15.20;;;;;;;;;;5120512;27;20419;-81
2023/10/27 05:19:39;;;;;;;29.43;14.37;;;;;;;;;;5100682;27;20439;-81
2023/10/27 05:22:05;;;;;;;36.88;14.70;;;;;;;;;;5112298;27;20416;-81
2023/10/27 05:24:34;;;;;;;27.13;13.55;;;;;;;;;;5105737;28;20398;-81
2023/10/27 05:27:01;;;;;;;54.60;16.15;;;9.60;99.90;;;;;;5107422;27;20489;-81
2023/10/27 05:29:27;;;;;;;28.83;14.48;;;;;;;;;;5112301;28;20392;-82
2023/10/27 05:31:53;;;;;;;90.93;17.80;;;;;;;;;;5090103;27;20854;-81
2023/10/27 05:34:19;;;;;;;50.63;15.93;;;;;;;;;;5118133;27;20398;-81
2023/10/27 05:36:45;;;;;;;30.45;14.63;;;9.60;99.90;;;;;;5107294;27;20506;-80
2023/10/27 05:39:17;;;;;;;38.90;17.27;;;;;;;;;;5104988;28;20509;-81
2023/10/27 05:41:47;;;;;;;48.33;16.40;;;;;;;;;;5089987;28;20492;-80
2023/10/27 05:44:16;;;;;;;37.33;16.30;;;;;;;;;;5091309;28;20574;-80
2023/10/27 05:46:42;;;;;;;27.90;14.13;;;;;;;;;;5115945;27;20487;-80
2023/10/27 05:49:08;;;;;;;75.72;20.30;;;;;;;;;;5112721;27;20424;-80
2023/10/27 05:51:35;;;;;;;32.33;16.33;;;;;;;;;;5090746;28;21185;-80
2023/10/27 05:54:01;;;;;;;33.42;18.23;;;;;;;;;;5102074;27;20435;-81
2023/10/27 05:56:27;;;;;;;30.65;17.02;;;;;;;;;;5111721;28;20455;-80
2023/10/27 05:58:53;;;;;;;31.83;16.93;;;;;;;;;;5112658;27;20415;-81
2023/10/27 06:01:20;;;;;;;31.05;16.92;;;;;;;;;;5102024;28;20742;-81
2023/10/27 06:03:46;;;;;;;29.55;14.90;;;9.50;99.90;;;;;;5109821;27;20543;-80
2023/10/27 06:06:12;;;;;;;26.73;14.43;;;;;;;;;;5126562;27;20413;-81
2023/10/27 06:08:44;;;;;;;31.52;17.13;;;;;;;;;;5096422;28;20408;-82
2023/10/27 06:11:11;;;;;;;34.63;20.30;;;;;;;;;;5117766;27;20446;-82
2023/10/27 06:13:37;;;;;;;34.20;20.35;;;9.40;99.90;;;;;;5111183;27;20452;-81
2023/10/27 06:16:04;;;;;;;36.47;19.73;;;;;;;;;;5077132;27;20574;-81
2023/10/27 06:18:30;;;;;;;32.63;17.23;;;;;;;;;;5109872;28;20460;-81
2023/10/27 06:20:56;;;;;;;31.40;17.27;;;;;;;;;;5114015;27;20494;-83
2023/10/27 06:23:22;;;;;;;31.45;15.85;;;;;;;;;;5096796;28;20453;-81
2023/10/27 06:25:48;;;;;;;34.17;16.00;;;;;;;;;;5112401;27;20914;-81
2023/10/27 06:28:14;;;;;;;31.70;16.67;;;;;;;;;;5112067;27;20394;-81
2023/10/27 06:30:40;;;;;;;31.02;15.82;;;;;;;;;;5096438;28;20404;-82
2023/10/27 06:33:06;;;;;;;33.08;15.98;;;;;;;;;;5097869;28;20459;-82
2023/10/27 06:35:33;;;;;;;27.52;15.20;;;;;;;;;;5101652;28;20428;-81
2023/10/27 06:37:59;;;;;;;28.77;15.90;;;;;;;;;;5107978;28;20443;-80
2023/10/27 06:40:25;;;;;;;32.08;16.83;;;;;;;;;;5108713;27;20405;-80
2023/10/27 06:42:51;;;;;;;36.00;19.60;;;;;;;;;;5131139;27;20708;-81
2023/10/27 06:45:17;;;;;;;35.13;16.83;;;;;;;;;;5105221;27;20826;-81
2023/10/27 06:47:43;;;;;;;30.38;16.75;;;;;;;;;;5117130;27;20404;-81
2023/10/27 06:50:09;;;;;;;30.77;17.23;;;9.70;99.90;;;;;;5111718;27;20405;-80
2023/10/27 06:52:36;;;;;;;28.53;16.20;;;;;;;;;;5094185;27;20429;-80
2023/10/27 06:55:02;;;;;;;29.63;16.25;;;;;;;;;;5104951;27;20501;-81
2023/10/27 06:57:28;;;;;;;28.40;15.52;;;;;;;;;;5120379;27;20406;-81
2023/10/27 06:59:56;;;;;;;27.58;15.60;;;9.80;99.90;;;;;;5083851;28;20388;-81
2023/10/27 07:02:22;;;;;;;33.40;16.20;;;;;;;;;;5121747;27;20408;-80
2023/10/27 07:04:49;;;;;;;29.27;14.27;;;;;;;;;;5096816;28;20402;-81
2023/10/27 07:07:15;;;;;;;28.70;14.68;;;;;;;;;;5109573;27;20824;-81
2023/10/27 07:09:41;;;;;;;31.67;15.53;;;;;;;;;;5097402;27;20410;-80
2023/10/27 07:12:08;;;;;;;25.08;14.40;;;;;;;;;;5113016;27;20476;-81
2023/10/27 07:14:34;;;;;;;27.67;18.10;;;;;;;;;;5109446;28;20406;-81
2023/10/27 07:17:00;;;;;;;24.90;15.93;;;;;;;;;;5100530;28;20456;-81
2023/10/27 07:19:27;;;;;;;26.17;14.68;;;;;;;;;;5103918;28;20414;-81
2023/10/27 07:21:53;;;;;;;23.80;14.13;;;;;;;;;;5107557;28;20397;-81
2023/10/27 07:24:19;;;;;;;24.65;14.00;;;;;;;;;;5086363;28;20399;-82
2023/10/27 07:26:45;;;;;;;22.58;13.45;;;;;;;;;;5085180;28;20417;-82
2023/10/27 07:29:11;;;;;;;23.23;13.68;;;;;;;;;;5087885;28;20404;-82
2023/10/27 07:31:37;;;;;;;23.63;13.30;;;;;;;;;;5111326;28;20518;-85
2023/10/27 07:34:05;;;;;;;23.63;12.77;;;;;;;;;;5111205;28;20409;-84
2023/10/27 07:36:32;;;;;;;21.88;14.05;;;;;;;;;;5111113;28;20424;-81
2023/10/27 07:38:58;;;;;;;21.40;13.40;;;;;;;;;;5107949;28;20424;-81
2023/10/27 07:41:24;;;;;;;24.00;14.38;;;;;;;;;;5089097;28;20764;-81
2023/10/27 07:43:50;;;;;;;22.17;13.65;;;;;;;;;;5097390;28;22363;-82
2023/10/27 07:46:16;;;;;;;21.77;14.40;;;9.70;99.90;;;;;;5091891;28;20419;-82
2023/10/27 07:48:42;;;;;;;22.27;13.95;;;;;;;;;;5098374;28;20760;-82
2023/10/27 07:51:08;;;;;;;22.20;13.80;;;9.70;99.90;;;;;;5075652;28;20437;-83
2023/10/27 07:53:34;;;;;;;24.73;13.70;;;;;;;;;;5083218;28;20435;-82
2023/10/27 07:56:00;;;;;;;24.02;14.40;;;;;;;;;;5101785;28;20440;-82
2023/10/27 07:58:26;;;;;;;22.38;14.13;;;;;;;;;;5094549;28;20431;-82
2023/10/27 08:00:53;;;;;;;22.73;14.02;;;;;;;;;;5110759;28;20407;-82
2023/10/27 08:03:22;;;;;;;23.40;14.80;;;10.00;99.90;;;;;;5104944;28;20401;-83
2023/10/27 08:05:49;;;;;;;23.52;14.15;;;10.00;99.90;;;;;;5102019;28;20470;-81
2023/10/27 08:08:15;;;;;;;21.92;14.65;;;;;;;;;;5093866;28;20404;-82
2023/10/27 08:10:44;;;;;;;22.73;14.88;;;;;;;;;;5111097;28;20415;-82
2023/10/27 08:13:10;;;;;;;21.45;14.52;;;10.20;99.90;;;;;;5112193;28;20415;-83
2023/10/27 08:15:37;;;;;;;22.88;14.45;;;;;;;;;;5126694;28;20426;-81
2023/10/27 08:18:03;;;;;;;20.55;13.10;;;;;;;;;;5113173;28;20399;-82
2023/10/27 08:20:29;;;;;;;20.67;14.15;;;;;;;;;;5119798;28;20874;-81
2023/10/27 08:22:55;;;;;;;20.58;14.10;;;10.10;99.90;;;;;;5115059;27;20411;-83
2023/10/27 08:25:22;;;;;;;20.70;13.70;;;;;;;;;;5117873;27;20483;-83
2023/10/27 08:27:52;;;;;;;19.27;13.00;;;;;;;;;;5113482;27;20955;-83
2023/10/27 08:30:18;;;;;;;19.70;12.38;;;;;;;;;;5104877;27;20394;-82
2023/10/27 08:32:45;;;;;;;18.48;12.93;;;;;;;;;;5107557;27;20422;-82
2023/10/27 08:35:11;;;;;;;18.80;13.63;;;;;;;;;;5089431;27;20400;-82
2023/10/27 08:37:36;;;;;;;18.20;12.65;;;9.90;99.90;;;;;;5084308;27;20439;-82
2023/10/27 08:40:03;;;;;;;18.65;12.85;;;;;;;;;;5104915;28;20919;-81
2023/10/27 08:42:32;;;;;;;19.45;14.70;;;;;;;;;;5106104;27;20402;-81
2023/10/27 08:44:58;;;;;;;19.40;12.05;;;10.20;99.90;;;;;;5114206;27;20795;-81
2023/10/27 08:47:26;;;;;;;18.77;12.90;;;;;;;;;;5108881;27;20439;-83
2023/10/27 08:49:53;;;;;;;19.17;13.15;;;;;;;;;;5111911;27;20415;-83
2023/10/27 08:52:20;;;;;;;18.13;12.70;;;;;;;;;;5115306;27;20512;-81
2023/10/27 08:54:46;;;;;;;17.25;12.77;;;;;;;;;;5108985;27;20505;-83
2023/10/27 08:57:13;;;;;;;20.55;12.85;;;;;;;;;;5117487;27;20467;-82
2023/10/27 08:59:39;;;;;;;19.33;12.98;;;;;;;;;;5099608;28;20828;-82
2023/10/27 09:02:05;;;;;;;19.33;12.30;;;;;;;;;;5108206;27;20402;-82
2023/10/27 09:04:33;;;;;;;17.35;11.45;;;;;;;;;;5112776;27;20914;-81
2023/10/27 09:07:00;;;;;;;19.08;12.70;;;;;;;;;;5095811;28;20400;-82
2023/10/27 09:09:26;;;;;;;19.80;13.27;;;;;;;;;;5085740;27;20406;-81
2023/10/27 09:11:52;;;;;;;19.05;12.63;;;;;;;;;;5104153;27;20433;-81
2023/10/27 09:14:26;;;;;;;18.33;13.52;;;10.10;99.90;;;;;;5107516;27;20795;-82
2023/10/27 09:17:11;;;;;;;16.13;12.50;;;10.20;99.90;;;;;;5100320;27;20914;-82
2023/10/27 09:19:39;;;;;;;17.40;12.80;;;10.30;99.90;;;;;;5083559;27;20409;-82
2023/10/27 09:22:15;;;;;;;16.05;11.45;;;10.30;99.90;;;;;;5101213;28;20399;-82
2023/10/27 09:24:42;;;;;;;18.73;12.03;;;10.40;99.90;;;;;;5090493;27;20739;-82
2023/10/27 09:27:08;;;;;;;18.27;11.93;;;;;;;;;;5107339;27;20404;-82
2023/10/27 09:29:41;;;;;;;18.58;12.20;;;10.40;99.90;;;;;;5086509;27;20455;-82
2023/10/27 09:32:25;;;;;;;18.00;11.68;;;10.50;99.90;;;;;;5068046;27;20491;-82
2023/10/27 09:35:13;;;;;;;21.20;11.93;;;10.70;99.90;;;;;;5087519;27;20405;-81
2023/10/27 09:37:41;;;;;;;15.80;11.45;;;;;;;;;;5100780;27;20415;-82
2023/10/27 09:40:11;;;;;;;17.27;12.00;;;;;;;;;;5099146;27;20497;-83
2023/10/27 09:42:38;;;;;;;17.60;12.93;;;10.40;99.90;;;;;;5115509;27;20425;-83
2023/10/27 09:45:16;;;;;;;17.58;12.25;;;10.60;99.90;;;;;;5096945;27;20401;-82
2023/10/27 09:47:41;;;;;;;18.00;12.55;;;10.60;99.90;;;;;;5110408;27;20389;-83
2023/10/27 09:50:21;;;;;;;16.83;11.75;;;10.40;99.90;;;;;;5090183;27;20414;-82
2023/10/27 09:52:49;;;;;;;17.67;12.00;;;;;;;;;;5095677;27;20401;-84
2023/10/27 09:55:17;;;;;;;16.67;13.40;;;;;;;;;;5108345;27;20427;-83
2023/10/27 09:57:46;;;;;;;18.00;13.10;;;10.60;99.90;;;;;;5121931;27;20406;-83
2023/10/27 10:00:25;;;;;;;18.58;12.60;;;;;;;;;;5099123;27;20418;-83
2023/10/27 10:02:51;;;;;;;19.35;12.30;;;;;;;;;;5102171;27;20404;-83
2023/10/27 10:05:18;;;;;;;16.93;12.43;;;;;;;;;;5120709;27;20493;-83
2023/10/27 10:07:44;;;;;;;18.33;12.18;;;;;;;;;;5089131;27;20426;-83
2023/10/27 10:10:24;;;;;;;16.50;11.40;;;10.70;99.90;;;;;;5108403;27;20438;-84
2023/10/27 10:13:05;;;;;;;17.98;13.38;;;;;;;;;;5100749;27;20419;-83
2023/10/27 10:15:36;;;;;;;18.00;12.98;;;10.30;99.90;;;;;;5106387;27;20414;-83
2023/10/27 10:18:05;;;;;;;19.00;12.85;;;10.70;99.90;;;;;;5114788;27;20398;-82
2023/10/27 10:20:52;;;;;;;18.80;13.50;;;;;;;;;;5116264;27;20395;-82
2023/10/27 10:23:18;;;;;;;19.58;12.65;;;;;;;;;;5104850;27;20902;-83
2023/10/27 10:25:51;;;;;;;18.52;12.85;;;;;;;;;;5099782;27;20402;-82
2023/10/27 10:28:17;;;;;;;18.35;12.50;;;;;;;;;;5118044;27;20485;-82
2023/10/27 10:30:44;;;;;;;19.35;13.75;;;10.70;99.90;;;;;;5117644;27;20395;-82
2023/10/27 10:33:16;;;;;;;19.05;13.75;;;;;;;;;;5087308;27;20414;-83
2023/10/27 10:35:44;;;;;;;20.60;14.82;;;10.50;99.90;;;;;;5086851;28;20772;-82
2023/10/27 10:38:22;;;;;;;18.88;13.10;;;;;;;;;;5101377;27;20395;-82
2023/10/27 10:40:52;;;;;;;18.35;13.38;;;10.60;99.90;;;;;;5115159;27;20406;-82
2023/10/27 10:43:20;;;;;;;19.27;13.32;;;10.70;99.90;;;;;;5086205;28;20399;-83
2023/10/27 10:45:53;;;;;;;18.65;13.60;;;;;;;;;;5111282;27;20476;-82
2023/10/27 10:48:20;;;;;;;18.95;13.02;;;;;;;;;;5097566;27;20914;-82
2023/10/27 10:50:47;;;;;;;21.00;14.27;;;10.30;99.90;;;;;;5087170;27;20437;-82
2023/10/27 10:53:17;;;;;;;18.42;13.13;;;;;;;;;;5116257;27;20432;-82
2023/10/27 10:55:45;;;;;;;19.05;13.68;;;10.70;99.90;;;;;;5121111;27;20418;-83
2023/10/27 10:58:11;;;;;;;19.60;13.82;;;;;;;;;;5114262;27;20414;-81
2023/10/27 11:00:37;;;;;;;19.70;14.23;;;;;;;;;;5100411;27;20483;-82
2023/10/27 11:03:07;;;;;;;17.75;12.88;;;10.70;99.90;;;;;;5122785;27;20399;-82
2023/10/27 11:05:33;;;;;;;18.77;13.00;;;;;;;;;;5101470;27;20477;-82
2023/10/27 11:07:59;;;;;;;20.48;13.75;;;;;;;;;;5123150;27;20405;-82
2023/10/27 11:10:25;;;;;;;19.00;12.98;;;;;;;;;;5103971;27;20403;-81
2023/10/27 11:12:51;;;;;;;18.30;12.98;;;;;;;;;;5090913;27;20654;-81
2023/10/27 11:15:36;;;;;;;19.10;12.88;;;;;;;;;;5103772;27;20925;-80
2023/10/27 11:18:06;;;;;;;19.20;13.13;;;;;;;;;;5102058;28;20404;-81
2023/10/27 11:20:38;;;;;;;20.20;14.18;;;10.80;99.90;;;;;;5098199;28;20398;-80
2023/10/27 11:23:11;;;;;;;19.25;13.80;;;;;;;;;;5089290;28;20527;-82
2023/10/27 11:25:37;;;;;;;19.73;13.02;;;;;;;;;;5106336;28;20425;-81
2023/10/27 11:28:22;;;;;;;20.67;13.57;;;10.70;99.90;;;;;;5098877;28;20400;-81
2023/10/27 11:31:00;;;;;;;21.52;14.30;;;;;;;;;;5116323;28;20441;-81
2023/10/27 11:33:26;;;;;;;22.55;14.95;;;;;;;;;;5110568;27;20485;-81
2023/10/27 11:35:53;;;;;;;21.80;14.13;;;;;;;;;;5098532;27;20412;-81
2023/10/27 11:38:22;;;;;;;24.45;14.90;;;;;;;;;;5134674;27;20397;-81
2023/10/27 11:40:49;;;;;;;25.92;16.08;;;;;;;;;;5110061;28;20510;-81
2023/10/27 11:43:15;;;;;;;23.35;15.77;;;10.40;99.90;;;;;;5097327;28;20394;-81
2023/10/27 11:45:41;;;;;;;25.37;15.80;;;;;;;;;;5096933;28;20949;-80
2023/10/27 11:48:07;;;;;;;23.35;15.00;;;;;;;;;;5113947;28;20399;-81
2023/10/27 11:50:33;;;;;;;22.50;13.90;;;;;;;;;;5096677;28;20391;-81
2023/10/27 11:52:59;;;;;;;18.42;13.40;;;;;;;;;;5113969;28;20409;-81
2023/10/27 11:55:25;;;;;;;19.70;12.73;;;;;;;;;;5114907;27;20452;-81
2023/10/27 11:57:51;;;;;;;19.67;13.55;;;;;;;;;;5098449;27;20454;-81
2023/10/27 12:00:17;;;;;;;20.45;14.23;;;;;;;;;;5135587;27;20392;-81
2023/10/27 12:02:44;;;;;;;19.92;14.68;;;;;;;;;;5102498;27;20924;-81
2023/10/27 12:05:10;;;;;;;18.73;13.57;;;;;;;;;;5100460;27;20727;-75
2023/10/27 12:07:36;;;;;;;20.10;13.68;;;;;;;;;;5112786;28;20739;-76
2023/10/27 12:10:02;;;;;;;20.50;13.77;;;;;;;;;;5104031;27;20830;-75
2023/10/27 12:12:28;;;;;;;21.40;13.75;;;;;;;;;;5093751;27;20408;-76
2023/10/27 12:14:54;;;;;;;20.42;13.40;;;;;;;;;;5113475;27;20418;-75
2023/10/27 12:17:23;;;;;;;20.85;14.55;;;;;;;;;;5083027;27;20826;-75
2023/10/27 12:19:49;;;;;;;21.52;14.32;;;;;;;;;;5106387;27;20400;-76
2023/10/27 12:22:15;;;;;;;25.20;15.10;;;10.70;99.90;;;;;;5106257;27;20400;-76
2023/10/27 12:24:42;;;;;;;22.02;14.70;;;;;;;;;;5088817;27;20409;-76
2023/10/27 12:27:10;;;;;;;22.65;15.70;;;;;;;;;;5100157;27;20448;-76
2023/10/27 12:29:36;;;;;;;21.35;14.38;;;;;;;;;;5088422;27;20416;-76
2023/10/27 12:32:03;;;;;;;22.48;14.52;;;;;;;;;;5082123;28;20436;-76
2023/10/27 12:34:29;;;;;;;23.42;15.38;;;;;;;;;;5130541;27;20418;-76
2023/10/27 12:36:56;;;;;;;26.40;15.13;;;;;;;;;;5107577;27;20497;-76
2023/10/27 12:39:23;;;;;;;22.52;14.88;;;;;;;;;;5081948;27;20970;-76
2023/10/27 12:41:51;;;;;;;28.42;15.65;;;;;;;;;;5093445;27;20401;-76
2023/10/27 12:44:17;;;;;;;24.20;15.65;;;;;;;;;;5110583;27;20474;-76
2023/10/27 12:46:44;;;;;;;24.45;15.30;;;;;;;;;;5116699;27;20489;-76
2023/10/27 12:49:11;;;;;;;25.42;15.80;;;;;;;;;;5098114;27;20923;-76
2023/10/27 12:51:38;;;;;;;24.15;15.43;;;11.00;99.90;;;;;;5089603;27;20401;-75
2023/10/27 12:54:04;;;;;;;24.48;14.07;;;;;;;;;;5101956;27;20402;-76
2023/10/27 12:56:30;;;;;;;25.77;15.77;;;;;;;;;;5080628;27;20417;-76
2023/10/27 12:58:56;;;;;;;23.65;15.77;;;;;;;;;;5090152;28;20399;-76
2023/10/27 13:01:22;;;;;;;22.58;15.07;;;;;;;;;;5098445;27;20455;-76
2023/10/27 13:03:49;;;;;;;23.52;15.65;;;;;;;;;;5100858;27;20415;-76
2023/10/27 13:06:15;;;;;;;25.15;16.65;;;;;;;;;;5111114;27;20467;-76
2023/10/27 13:08:42;;;;;;;24.80;16.13;;;;;;;;;;5099358;27;20396;-76
2023/10/27 13:11:08;;;;;;;25.63;16.38;;;10.80;99.90;;;;;;5083067;27;20431;-76
2023/10/27 13:13:34;;;;;;;25.35;16.10;;;;;;;;;;5096620;27;20481;-76
2023/10/27 13:16:01;;;;;;;24.33;16.63;;;;;;;;;;5083345;27;20458;-76
2023/10/27 13:18:27;;;;;;;25.07;16.03;;;;;;;;;;5097088;28;20586;-77
2023/10/27 13:20:53;;;;;;;26.88;17.60;;;;;;;;;;5115028;27;20412;-77
2023/10/27 13:23:19;;;;;;;23.90;16.17;;;;;;;;;;5079870;27;20909;-76
2023/10/27 13:25:46;;;;;;;29.75;18.45;;;;;;;;;;5097299;27;20474;-76
2023/10/27 13:28:14;;;;;;;26.42;16.63;;;;;;;;;;5093818;27;20411;-76
2023/10/27 13:30:45;;;;;;;26.08;16.75;;;11.20;99.90;;;;;;5108558;27;20769;-76
2023/10/27 13:33:11;;;;;;;24.52;15.65;;;;;;;;;;5081019;27;20406;-77
2023/10/27 13:35:38;;;;;;;24.60;15.73;;;;;;;;;;5107485;27;20990;-76
2023/10/27 13:38:06;;;;;;;26.33;16.13;;;;;;;;;;5111408;27;20457;-76
2023/10/27 13:40:36;;;;;;;23.33;15.43;;;;;;;;;;5091035;27;20530;-76
2023/10/27 13:43:02;;;;;;;26.55;16.20;;;;;;;;;;5097484;28;20892;-76
2023/10/27 13:45:29;;;;;;;24.90;16.08;;;;;;;;;;5109351;27;20489;-76
2023/10/27 13:47:55;;;;;;;24.60;15.93;;;;;;;;;;5110173;27;20417;-77
2023/10/27 13:50:21;;;;;;;26.33;16.52;;;;;;;;;;5112194;27;20452;-77